createdAt,value
2023-04-30T00:00:35.763Z,102606.34
2023-04-30T00:03:02.468Z,102599.94
2023-04-30T00:05:28.988Z,102597.53
2023-04-30T00:07:55.364Z,102601.41
2023-04-30T00:10:21.771Z,102601.84
2023-04-30T00:12:48.156Z,102598.63
2023-04-30T00:15:14.694Z,102602.31
2023-04-30T00:17:41.261Z,102597.38
2023-04-30T00:20:08.324Z,102597.91
2023-04-30T00:22:34.888Z,102596.13
2023-04-30T00:25:01.514Z,102594.78
2023-04-30T00:27:28.134Z,102589.16
2023-04-30T00:29:55.557Z,102597.72
2023-04-30T00:32:22.413Z,102604.47
2023-04-30T00:34:49.001Z,102600.66
2023-04-30T00:37:15.546Z,102605.13
2023-04-30T00:39:41.921Z,102600.09
2023-04-30T00:42:08.320Z,102598.69
2023-04-30T00:44:34.740Z,102602.38
2023-04-30T00:47:01.205Z,102606.22
2023-04-30T00:49:27.637Z,102607.72
2023-04-30T00:51:54.493Z,102604.50
2023-04-30T00:54:21.410Z,102617.44
2023-04-30T00:56:47.841Z,102609.75
2023-04-30T00:59:14.288Z,102610.78
2023-04-30T01:01:41.170Z,102607.56
2023-04-30T01:04:07.622Z,102610.63
2023-04-30T01:06:34.260Z,102616.34
2023-04-30T01:09:01.120Z,102618.41
2023-04-30T01:12:01.894Z,102613.34
2023-04-30T01:14:34.025Z,102619.88
2023-04-30T01:17:06.691Z,102610.81
2023-04-30T01:19:43.665Z,102614.69
2023-04-30T01:22:30.282Z,102617.97
2023-04-30T01:25:08.953Z,102614.97
2023-04-30T01:28:06.859Z,102620.69
2023-04-30T01:30:34.568Z,102622.38
2023-04-30T01:33:01.326Z,102613.91
2023-04-30T01:35:41.745Z,102617.97
2023-04-30T01:38:28.797Z,102605.09
2023-04-30T01:41:04.881Z,102619.66
2023-04-30T01:43:44.967Z,102618.47
2023-04-30T01:46:21.623Z,102611.25
2023-04-30T01:49:13.656Z,102598.56
2023-04-30T01:51:42.186Z,102607.66
2023-04-30T01:54:19.454Z,102609.28
2023-04-30T01:56:52.193Z,102615.38
2023-04-30T01:59:18.908Z,102610.13
2023-04-30T02:01:45.357Z,102602.31
2023-04-30T02:04:11.721Z,102619.47
2023-04-30T02:06:38.189Z,102625.53
2023-04-30T02:09:06.858Z,102618.69
2023-04-30T02:11:33.252Z,102618.06
2023-04-30T02:13:59.616Z,102617.28
2023-04-30T02:16:26.085Z,102620.13
2023-04-30T02:18:52.552Z,102620.13
2023-04-30T02:21:19.318Z,102623.78
2023-04-30T02:23:45.913Z,102622.97
2023-04-30T02:26:12.304Z,102628.69
2023-04-30T02:28:38.666Z,102622.03
2023-04-30T02:31:05.101Z,102627.69
2023-04-30T02:33:31.686Z,102631.38
2023-04-30T02:35:59.793Z,102618.88
2023-04-30T02:38:26.455Z,102619.66
2023-04-30T02:40:53.067Z,102623.31
2023-04-30T02:43:19.443Z,102619.50
2023-04-30T02:45:45.810Z,102619.94
2023-04-30T02:48:12.521Z,102624.81
2023-04-30T02:50:38.978Z,102615.75
2023-04-30T02:53:05.394Z,102614.16
2023-04-30T02:55:32.696Z,102611.72
2023-04-30T02:57:59.048Z,102614.81
2023-04-30T03:00:25.424Z,102613.41
2023-04-30T03:02:51.923Z,102608.34
2023-04-30T03:05:18.436Z,102600.47
2023-04-30T03:07:44.840Z,102617.84
2023-04-30T03:10:11.488Z,102619.06
2023-04-30T03:12:37.842Z,102615.88
2023-04-30T03:15:04.670Z,102609.81
2023-04-30T03:17:31.063Z,102600.31
2023-04-30T03:19:57.549Z,102610.25
2023-04-30T03:22:26.482Z,102607.44
2023-04-30T03:24:54.153Z,102609.50
2023-04-30T03:27:20.867Z,102609.13
2023-04-30T03:29:47.221Z,102602.25
2023-04-30T03:32:13.629Z,102608.28
2023-04-30T03:34:40.006Z,102600.84
2023-04-30T03:37:06.389Z,102601.06
2023-04-30T03:39:32.762Z,102608.72
2023-04-30T03:41:59.140Z,102604.31
2023-04-30T03:44:25.562Z,102595.63
2023-04-30T03:46:51.910Z,102597.47
2023-04-30T03:49:18.284Z,102599.28
2023-04-30T03:51:44.955Z,102592.00
2023-04-30T03:54:11.306Z,102588.78
2023-04-30T03:56:38.098Z,102589.00
2023-04-30T03:59:05.402Z,102586.59
2023-04-30T04:01:31.796Z,102577.38
2023-04-30T04:03:58.849Z,102588.31
2023-04-30T04:06:25.357Z,102579.03
2023-04-30T04:08:51.803Z,102581.66
2023-04-30T04:11:18.221Z,102586.91
2023-04-30T04:13:44.585Z,102590.16
2023-04-30T04:16:11.222Z,102583.88
2023-04-30T04:18:37.686Z,102583.88
2023-04-30T04:21:04.308Z,102594.38
2023-04-30T04:23:30.727Z,102598.44
2023-04-30T04:25:57.523Z,102587.16
2023-04-30T04:28:24.087Z,102588.38
2023-04-30T04:30:50.464Z,102585.53
2023-04-30T04:33:17.261Z,102588.94
2023-04-30T04:35:43.672Z,102583.31
2023-04-30T04:38:10.113Z,102592.16
2023-04-30T04:40:37.207Z,102596.03
2023-04-30T04:43:03.751Z,102597.22
2023-04-30T04:45:31.376Z,102594.22
2023-04-30T04:47:57.796Z,102599.09
2023-04-30T04:50:24.400Z,102596.88
2023-04-30T04:52:50.873Z,102604.34
2023-04-30T04:55:17.621Z,102608.59
2023-04-30T04:57:43.984Z,102615.22
2023-04-30T05:00:11.718Z,102622.66
2023-04-30T05:02:38.191Z,102617.22
2023-04-30T05:05:04.888Z,102618.84
2023-04-30T05:07:31.547Z,102616.81
2023-04-30T05:09:57.891Z,102620.81
2023-04-30T05:12:24.321Z,102621.44
2023-04-30T05:14:51.235Z,102623.84
2023-04-30T05:17:17.696Z,102623.41
2023-04-30T05:19:44.182Z,102639.94
2023-04-30T05:22:10.808Z,102639.69
2023-04-30T05:24:37.226Z,102636.06
2023-04-30T05:27:05.441Z,102634.88
2023-04-30T05:29:31.803Z,102640.09
2023-04-30T05:31:58.312Z,102636.63
2023-04-30T05:34:24.810Z,102635.63
2023-04-30T05:36:51.365Z,102643.31
2023-04-30T05:39:17.773Z,102639.88
2023-04-30T05:41:44.291Z,102645.28
2023-04-30T05:44:10.735Z,102652.91
2023-04-30T05:46:37.180Z,102659.94
2023-04-30T05:49:03.720Z,102648.00
2023-04-30T05:51:30.214Z,102649.19
2023-04-30T05:53:57.488Z,102648.16
2023-04-30T05:56:24.805Z,102647.75
2023-04-30T05:58:52.476Z,102647.31
2023-04-30T06:01:22.170Z,102645.66
2023-04-30T06:03:48.720Z,102646.84
2023-04-30T06:06:15.246Z,102654.28
2023-04-30T06:08:45.337Z,102652.31
2023-04-30T06:11:12.935Z,102654.06
2023-04-30T06:13:39.677Z,102644.34
2023-04-30T06:16:07.281Z,102653.38
2023-04-30T06:18:33.870Z,102662.44
2023-04-30T06:21:00.413Z,102652.47
2023-04-30T06:23:26.811Z,102647.75
2023-04-30T06:25:53.211Z,102653.75
2023-04-30T06:28:19.638Z,102652.63
2023-04-30T06:30:46.183Z,102649.38
2023-04-30T06:33:12.547Z,102647.47
2023-04-30T06:35:39.009Z,102649.25
2023-04-30T06:38:05.441Z,102658.69
2023-04-30T06:40:31.823Z,102664.88
2023-04-30T06:42:58.338Z,102654.50
2023-04-30T06:45:24.766Z,102657.28
2023-04-30T06:47:51.937Z,102655.94
2023-04-30T06:50:18.760Z,102660.31
2023-04-30T06:52:45.169Z,102669.16
2023-04-30T06:55:11.550Z,102664.84
2023-04-30T06:57:37.940Z,102657.09
2023-04-30T07:00:06.421Z,102659.19
2023-04-30T07:02:33.201Z,102657.94
2023-04-30T07:04:59.681Z,102664.34
2023-04-30T07:07:26.190Z,102666.94
2023-04-30T07:09:53.762Z,102654.34
2023-04-30T07:12:21.331Z,102660.09
2023-04-30T07:14:47.814Z,102664.03
2023-04-30T07:17:14.207Z,102652.00
2023-04-30T07:19:40.655Z,102661.53
2023-04-30T07:22:07.071Z,102661.88
2023-04-30T07:24:34.179Z,102665.09
2023-04-30T07:27:03.152Z,102656.19
2023-04-30T07:29:30.193Z,102661.91
2023-04-30T07:31:56.873Z,102658.94
2023-04-30T07:34:23.372Z,102660.09
2023-04-30T07:36:50.269Z,102656.91
2023-04-30T07:39:17.798Z,102654.81
2023-04-30T07:41:44.230Z,102652.97
2023-04-30T07:44:11.956Z,102660.31
2023-04-30T07:46:38.550Z,102655.72
2023-04-30T07:49:05.029Z,102656.47
2023-04-30T07:51:32.906Z,102659.03
2023-04-30T07:54:00.167Z,102648.88
2023-04-30T07:56:26.704Z,102653.78
2023-04-30T07:58:53.129Z,102647.16
2023-04-30T08:01:19.504Z,102638.75
2023-04-30T08:03:46.513Z,102646.53
2023-04-30T08:06:13.136Z,102640.09
2023-04-30T08:08:39.746Z,102642.28
2023-04-30T08:11:06.250Z,102637.56
2023-04-30T08:13:32.753Z,102643.41
2023-04-30T08:15:59.139Z,102639.13
2023-04-30T08:18:25.551Z,102631.75
2023-04-30T08:20:52.044Z,102637.47
2023-04-30T08:23:18.514Z,102627.97
2023-04-30T08:25:44.920Z,102631.94
2023-04-30T08:28:11.287Z,102635.22
2023-04-30T08:30:37.743Z,102629.78
2023-04-30T08:33:04.306Z,102630.66
2023-04-30T08:35:30.805Z,102633.81
2023-04-30T08:37:57.191Z,102627.38
2023-04-30T08:40:33.805Z,102623.84
2023-04-30T08:43:11.583Z,102630.56
2023-04-30T08:45:38.059Z,102624.31
2023-04-30T08:48:05.367Z,102626.41
2023-04-30T08:50:32.106Z,102627.69
2023-04-30T08:52:59.032Z,102622.94
2023-04-30T08:55:27.451Z,102626.03
2023-04-30T08:57:53.926Z,102625.00
2023-04-30T09:00:20.489Z,102632.16
2023-04-30T09:02:48.329Z,102633.03
2023-04-30T09:05:15.679Z,102638.56
2023-04-30T09:07:55.617Z,102625.84
2023-04-30T09:10:32.320Z,102628.88
2023-04-30T09:13:06.644Z,102627.81
2023-04-30T09:15:34.683Z,102620.38
2023-04-30T09:18:17.325Z,102619.94
2023-04-30T09:20:58.416Z,102621.41
2023-04-30T09:23:25.313Z,102634.19
2023-04-30T09:25:51.757Z,102625.38
2023-04-30T09:28:18.547Z,102625.47
2023-04-30T09:30:45.132Z,102617.34
2023-04-30T09:33:12.531Z,102609.66
2023-04-30T09:35:41.587Z,102609.69
2023-04-30T09:38:08.714Z,102611.78
2023-04-30T09:40:40.342Z,102609.19
2023-04-30T09:43:06.941Z,102601.22
2023-04-30T09:45:48.370Z,102605.34
2023-04-30T09:48:18.927Z,102597.41
2023-04-30T09:50:46.097Z,102602.47
2023-04-30T09:53:14.236Z,102595.56
2023-04-30T09:55:45.796Z,102602.66
2023-04-30T09:58:12.921Z,102594.47
2023-04-30T10:00:39.955Z,102588.28
2023-04-30T10:03:11.700Z,102591.03
2023-04-30T10:05:40.677Z,102583.13
2023-04-30T10:08:13.807Z,102583.41
2023-04-30T10:10:43.225Z,102580.34
2023-04-30T10:13:11.818Z,102575.19
2023-04-30T10:15:47.862Z,102583.25
2023-04-30T10:18:23.877Z,102574.34
2023-04-30T10:20:51.809Z,102572.91
2023-04-30T10:23:18.511Z,102579.13
2023-04-30T10:25:45.551Z,102578.56
2023-04-30T10:28:12.602Z,102576.59
2023-04-30T10:30:39.186Z,102575.88
2023-04-30T10:33:49.649Z,102582.06
2023-04-30T10:36:38.496Z,102581.53
2023-04-30T10:39:05.219Z,102572.56
2023-04-30T10:41:31.947Z,102575.81
2023-04-30T10:44:02.311Z,102571.59
2023-04-30T10:46:29.060Z,102569.34
2023-04-30T10:48:55.767Z,102568.75
2023-04-30T10:51:22.642Z,102565.75
2023-04-30T10:53:51.340Z,102564.72
2023-04-30T10:56:32.270Z,102558.06
2023-04-30T10:59:01.188Z,102555.03
2023-04-30T11:01:28.383Z,102545.66
2023-04-30T11:04:10.946Z,102541.88
2023-04-30T11:06:52.546Z,102540.25
2023-04-30T11:09:18.998Z,102550.22
2023-04-30T11:11:46.465Z,102542.19
2023-04-30T11:14:13.391Z,102534.81
2023-04-30T11:16:41.286Z,102538.16
2023-04-30T11:19:13.243Z,102534.28
2023-04-30T11:22:05.302Z,102533.03
2023-04-30T11:24:59.757Z,102531.38
2023-04-30T11:27:30.832Z,102526.22
2023-04-30T11:29:58.286Z,102519.66
2023-04-30T11:32:27.433Z,102516.78
2023-04-30T11:34:54.614Z,102512.16
2023-04-30T11:37:43.676Z,102509.13
2023-04-30T11:40:11.966Z,102508.25
2023-04-30T11:42:39.821Z,102504.84
2023-04-30T11:45:23.662Z,102491.88
2023-04-30T11:47:52.040Z,102495.41
2023-04-30T11:50:29.408Z,102490.59
2023-04-30T11:52:57.350Z,102495.03
2023-04-30T11:55:25.298Z,102479.91
2023-04-30T11:57:55.687Z,102488.91
2023-04-30T12:00:27.729Z,102468.59
2023-04-30T12:02:56.122Z,102470.72
2023-04-30T12:05:26.769Z,102473.72
2023-04-30T12:07:57.511Z,102461.06
2023-04-30T12:10:25.671Z,102463.41
2023-04-30T12:12:53.238Z,102461.09
2023-04-30T12:15:26.208Z,102464.50
2023-04-30T12:17:54.644Z,102459.66
2023-04-30T12:20:22.522Z,102461.69
2023-04-30T12:22:49.148Z,102457.47
2023-04-30T12:25:17.863Z,102466.03
2023-04-30T12:27:51.175Z,102461.22
2023-04-30T12:30:22.029Z,102458.06
2023-04-30T12:32:53.367Z,102435.75
2023-04-30T12:35:21.559Z,102434.41
2023-04-30T12:37:52.586Z,102443.97
2023-04-30T12:40:27.059Z,102430.59
2023-04-30T12:43:01.241Z,102432.44
2023-04-30T12:45:52.847Z,102441.78
2023-04-30T12:48:21.212Z,102441.19
2023-04-30T12:50:53.625Z,102431.91
2023-04-30T12:53:21.568Z,102423.19
2023-04-30T12:56:15.882Z,102422.06
2023-04-30T12:58:45.441Z,102404.50
2023-04-30T13:01:15.308Z,102402.41
2023-04-30T13:03:42.314Z,102410.38
2023-04-30T13:06:10.440Z,102395.53
2023-04-30T13:08:45.669Z,102391.50
2023-04-30T13:11:24.154Z,102398.03
2023-04-30T13:13:50.585Z,102397.34
2023-04-30T13:16:17.186Z,102402.16
2023-04-30T13:18:43.949Z,102382.69
2023-04-30T13:21:10.687Z,102392.00
2023-04-30T13:23:48.626Z,102382.72
2023-04-30T13:26:18.820Z,102383.28
2023-04-30T13:28:45.242Z,102385.63
2023-04-30T13:31:11.677Z,102375.75
2023-04-30T13:33:38.145Z,102382.88
2023-04-30T13:36:04.564Z,102373.25
2023-04-30T13:38:30.931Z,102380.00
2023-04-30T13:40:57.352Z,102375.91
2023-04-30T13:43:23.862Z,102370.41
2023-04-30T13:45:51.196Z,102361.41
2023-04-30T13:48:17.580Z,102361.63
2023-04-30T13:50:44.041Z,102360.28
2023-04-30T13:53:10.470Z,102361.13
2023-04-30T13:55:36.906Z,102354.16
2023-04-30T13:58:03.559Z,102352.56
2023-04-30T14:00:30.017Z,102350.19
2023-04-30T14:02:56.518Z,102352.38
2023-04-30T14:05:23.001Z,102349.91
2023-04-30T14:07:49.367Z,102343.38
2023-04-30T14:10:15.822Z,102336.63
2023-04-30T14:12:42.249Z,102342.28
2023-04-30T14:15:09.376Z,102335.25
2023-04-30T14:17:35.987Z,102333.38
2023-04-30T14:20:02.543Z,102337.09
2023-04-30T14:22:29.005Z,102333.31
2023-04-30T14:24:55.380Z,102332.25
2023-04-30T14:27:21.962Z,102335.50
2023-04-30T14:29:48.407Z,102340.03
2023-04-30T14:32:14.900Z,102338.59
2023-04-30T14:34:41.451Z,102340.50
2023-04-30T14:37:08.022Z,102343.09
2023-04-30T14:39:34.410Z,102332.63
2023-04-30T14:42:01.682Z,102337.63
2023-04-30T14:44:28.093Z,102328.69
2023-04-30T14:46:54.610Z,102332.75
2023-04-30T14:49:20.999Z,102325.88
2023-04-30T14:51:47.560Z,102320.22
2023-04-30T14:54:13.987Z,102312.28
2023-04-30T14:56:41.033Z,102311.03
2023-04-30T14:59:07.473Z,102316.88
2023-04-30T15:01:33.897Z,102311.34
2023-04-30T15:04:00.580Z,102307.72
2023-04-30T15:06:27.353Z,102307.41
2023-04-30T15:08:53.923Z,102303.19
2023-04-30T15:11:20.301Z,102299.91
2023-04-30T15:13:46.847Z,102299.78
2023-04-30T15:16:13.397Z,102289.75
2023-04-30T15:18:40.341Z,102293.66
2023-04-30T15:21:06.755Z,102286.59
2023-04-30T15:23:33.626Z,102284.50
2023-04-30T15:26:00.789Z,102287.78
2023-04-30T15:28:27.273Z,102273.16
2023-04-30T15:30:54.044Z,102268.56
2023-04-30T15:33:20.668Z,102282.09
2023-04-30T15:35:47.828Z,102283.44
2023-04-30T15:38:14.260Z,102269.78
2023-04-30T15:40:40.647Z,102278.06
2023-04-30T15:43:07.727Z,102273.69
2023-04-30T15:45:34.158Z,102272.41
2023-04-30T15:48:00.849Z,102269.78
2023-04-30T15:50:27.841Z,102275.88
2023-04-30T15:52:54.298Z,102275.69
2023-04-30T15:55:20.683Z,102264.50
2023-04-30T15:57:47.314Z,102271.31
2023-04-30T16:00:15.243Z,102269.47
2023-04-30T16:02:41.878Z,102256.75
2023-04-30T16:05:08.833Z,102250.94
2023-04-30T16:07:35.402Z,102251.72
2023-04-30T16:10:02.643Z,102248.25
2023-04-30T16:12:29.207Z,102245.38
2023-04-30T16:14:55.743Z,102249.56
2023-04-30T16:17:22.188Z,102244.78
2023-04-30T16:19:48.611Z,102241.50
2023-04-30T16:22:17.059Z,102245.34
2023-04-30T16:24:43.510Z,102237.25
2023-04-30T16:27:09.983Z,102239.56
2023-04-30T16:29:36.380Z,102235.00
2023-04-30T16:32:02.909Z,102224.19
2023-04-30T16:34:29.444Z,102225.97
2023-04-30T16:36:56.081Z,102210.16
2023-04-30T16:39:22.657Z,102219.13
2023-04-30T16:41:49.065Z,102207.00
2023-04-30T16:44:15.570Z,102210.69
2023-04-30T16:46:42.013Z,102213.41
2023-04-30T16:49:08.454Z,102206.38
2023-04-30T16:51:34.911Z,102207.19
2023-04-30T16:54:01.317Z,102204.66
2023-04-30T16:56:27.723Z,102213.31
2023-04-30T16:58:54.668Z,102207.34
2023-04-30T17:01:21.072Z,102198.19
2023-04-30T17:03:48.901Z,102191.16
2023-04-30T17:06:15.551Z,102200.47
2023-04-30T17:08:42.031Z,102203.16
2023-04-30T17:11:08.413Z,102203.06
2023-04-30T17:13:37.350Z,102199.19
2023-04-30T17:16:03.890Z,102209.19
2023-04-30T17:18:30.380Z,102192.06
2023-04-30T17:20:56.855Z,102195.47
2023-04-30T17:23:25.452Z,102188.59
2023-04-30T17:25:51.891Z,102190.41
2023-04-30T17:28:18.289Z,102192.28
2023-04-30T17:30:45.183Z,102190.16
2023-04-30T17:33:11.696Z,102182.16
2023-04-30T17:35:38.115Z,102184.44
2023-04-30T17:38:04.551Z,102184.53
2023-04-30T17:40:31.731Z,102187.59
2023-04-30T17:42:58.145Z,102184.25
2023-04-30T17:45:26.681Z,102186.69
2023-04-30T17:47:53.210Z,102187.41
2023-04-30T17:50:19.677Z,102190.78
2023-04-30T17:52:46.670Z,102180.69
2023-04-30T17:55:13.692Z,102183.06
2023-04-30T17:57:40.169Z,102186.03
2023-04-30T18:00:07.264Z,102183.97
2023-04-30T18:02:33.665Z,102181.88
2023-04-30T18:05:00.045Z,102179.91
2023-04-30T18:07:26.792Z,102175.38
2023-04-30T18:09:53.523Z,102174.94
2023-04-30T18:12:20.142Z,102177.22
2023-04-30T18:14:46.627Z,102171.78
2023-04-30T18:17:15.103Z,102177.91
2023-04-30T18:19:44.441Z,102181.44
2023-04-30T18:22:12.343Z,102178.72
2023-04-30T18:24:39.116Z,102175.06
2023-04-30T18:27:06.887Z,102180.69
2023-04-30T18:29:33.970Z,102178.81
2023-04-30T18:32:00.423Z,102168.50
2023-04-30T18:34:28.123Z,102177.22
2023-04-30T18:36:54.745Z,102176.00
2023-04-30T18:39:22.362Z,102172.41
2023-04-30T18:41:49.119Z,102171.41
2023-04-30T18:44:15.630Z,102166.72
2023-04-30T18:46:42.687Z,102165.72
2023-04-30T18:49:09.400Z,102172.66
2023-04-30T18:51:35.987Z,102168.69
2023-04-30T18:54:02.437Z,102172.41
2023-04-30T18:56:28.996Z,102166.09
2023-04-30T18:58:55.639Z,102165.88
2023-04-30T19:01:24.285Z,102165.97
2023-04-30T19:03:50.953Z,102156.44
2023-04-30T19:06:17.514Z,102166.69
2023-04-30T19:08:46.377Z,102159.81
2023-04-30T19:11:13.755Z,102167.06
2023-04-30T19:13:40.287Z,102164.25
2023-04-30T19:16:06.760Z,102169.16
2023-04-30T19:18:34.919Z,102166.34
2023-04-30T19:21:02.101Z,102164.03
2023-04-30T19:23:30.715Z,102160.66
2023-04-30T19:25:57.892Z,102175.06
2023-04-30T19:28:24.322Z,102175.47
2023-04-30T19:30:54.192Z,102173.66
2023-04-30T19:33:21.601Z,102180.09
2023-04-30T19:35:49.639Z,102187.84
2023-04-30T19:38:16.134Z,102171.41
2023-04-30T19:40:49.849Z,102179.50
2023-04-30T19:43:16.452Z,102171.34
2023-04-30T19:45:53.147Z,102165.81
2023-04-30T19:48:21.784Z,102186.31
2023-04-30T19:50:49.110Z,102178.66
2023-04-30T19:53:16.470Z,102173.41
2023-04-30T19:55:43.184Z,102176.38
2023-04-30T19:58:09.754Z,102170.88
2023-04-30T20:00:37.808Z,102176.75
2023-04-30T20:03:05.411Z,102176.28
2023-04-30T20:05:32.630Z,102173.38
2023-04-30T20:07:59.554Z,102172.63
2023-04-30T20:10:25.997Z,102170.00
2023-04-30T20:12:53.444Z,102170.31
2023-04-30T20:15:22.741Z,102166.38
2023-04-30T20:17:50.603Z,102165.34
2023-04-30T20:20:17.994Z,102165.88
2023-04-30T20:22:44.434Z,102173.09
2023-04-30T20:25:10.825Z,102167.53
2023-04-30T20:27:37.231Z,102172.09
2023-04-30T20:30:04.658Z,102170.75
2023-04-30T20:32:31.640Z,102172.88
2023-04-30T20:34:58.755Z,102171.84
2023-04-30T20:37:25.242Z,102170.28
2023-04-30T20:39:51.755Z,102166.88
2023-04-30T20:42:19.232Z,102169.25
2023-04-30T20:44:46.914Z,102166.34
2023-04-30T20:47:14.359Z,102162.66
2023-04-30T20:49:41.353Z,102153.13
2023-04-30T20:52:07.798Z,102151.28
2023-04-30T20:54:34.265Z,102159.81
2023-04-30T20:57:00.790Z,102158.22
2023-04-30T20:59:27.256Z,102150.28
2023-04-30T21:01:53.961Z,102149.22
2023-04-30T21:04:20.350Z,102156.38
2023-04-30T21:06:46.815Z,102152.41
2023-04-30T21:09:13.240Z,102147.38
2023-04-30T21:11:40.417Z,102143.66
2023-04-30T21:14:06.857Z,102142.59
2023-04-30T21:16:33.316Z,102147.13
2023-04-30T21:18:59.751Z,102139.69
2023-04-30T21:21:27.420Z,102133.88
2023-04-30T21:23:54.210Z,102134.94
2023-04-30T21:26:21.566Z,102130.94
2023-04-30T21:28:48.267Z,102134.63
2023-04-30T21:31:15.100Z,102134.91
2023-04-30T21:33:41.625Z,102125.34
2023-04-30T21:36:08.086Z,102125.34
2023-04-30T21:38:34.649Z,102125.09
2023-04-30T21:41:01.384Z,102129.06
2023-04-30T21:43:27.757Z,102122.69
2023-04-30T21:45:54.161Z,102124.03
2023-04-30T21:48:20.557Z,102126.41
2023-04-30T21:50:47.821Z,102118.97
2023-04-30T21:53:15.979Z,102122.41
2023-04-30T21:55:42.434Z,102121.34
2023-04-30T21:58:08.844Z,102120.56
2023-04-30T22:00:35.902Z,102117.88
2023-04-30T22:03:02.327Z,102114.69
2023-04-30T22:05:28.812Z,102111.78
2023-04-30T22:07:55.202Z,102112.31
2023-04-30T22:10:21.625Z,102110.72
2023-04-30T22:12:48.315Z,102108.59
2023-04-30T22:15:14.971Z,102113.09
2023-04-30T22:17:41.576Z,102111.75
2023-04-30T22:20:09.777Z,102101.94
2023-04-30T22:22:36.318Z,102101.66
2023-04-30T22:25:02.937Z,102100.59
2023-04-30T22:27:29.344Z,102099.25
2023-04-30T22:29:55.935Z,102097.41
2023-04-30T22:32:22.785Z,102089.72
2023-04-30T22:34:50.525Z,102094.72
2023-04-30T22:37:16.977Z,102094.16
2023-04-30T22:39:43.374Z,102096.78
2023-04-30T22:42:09.919Z,102094.66
2023-04-30T22:44:36.444Z,102088.00
2023-04-30T22:47:03.078Z,102088.22
2023-04-30T22:49:31.974Z,102090.09
2023-04-30T22:51:59.320Z,102084.53
2023-04-30T22:54:25.864Z,102090.56
2023-04-30T22:56:52.338Z,102080.25
2023-04-30T22:59:18.795Z,102086.31
2023-04-30T23:01:45.172Z,102091.84
2023-04-30T23:04:12.585Z,102084.19
2023-04-30T23:06:39.541Z,102092.09
2023-04-30T23:09:05.933Z,102082.03
2023-04-30T23:11:32.402Z,102084.13
2023-04-30T23:13:58.820Z,102087.28
2023-04-30T23:16:25.251Z,102081.72
2023-04-30T23:18:51.858Z,102083.50
2023-04-30T23:21:18.294Z,102073.16
2023-04-30T23:23:44.794Z,102071.06
2023-04-30T23:26:11.233Z,102076.84
2023-04-30T23:28:37.954Z,102076.31
2023-04-30T23:31:04.418Z,102069.91
2023-04-30T23:33:30.897Z,102072.81
2023-04-30T23:35:57.307Z,102074.66
2023-04-30T23:38:23.709Z,102064.06
2023-04-30T23:40:50.127Z,102062.16
2023-04-30T23:43:16.535Z,102062.63
2023-04-30T23:45:42.944Z,102063.16
2023-04-30T23:48:10.336Z,102064.97
2023-04-30T23:50:38.056Z,102060.53
2023-04-30T23:53:04.527Z,102064.19
2023-04-30T23:55:30.966Z,102057.31
2023-04-30T23:57:57.446Z,102053.88
